Terminal Aerodrome Forecast
Issued by NWS Cleveland, OH

Home | Current Version | Previous Version | Graphics & Text | Print | Product List | Glossary On
Versions: 1 2 3 4 5 6 7 8 9 10 11 12 13 14 15 16 17 18 19 20 21 22
000
FTUS41 KCLE 231700
TAFMFD
TAF
KMFD 231740Z 2318/2418 16008KT 4SM BR OVC004
      TEMPO 2318/2321 2SM BR
     FM232100 16007KT 5SM BR VCSH OVC006
     FM240300 15008KT 3SM -SHRA BR OVC003
     FM241400 16010KT 5SM BR OVC006=

USA.gov is the U.S. government's official web portal to all federal, state and local government web resources and services.